Flor Da Beira — CUBD4 — position and weather

sailwx.info

Track history (hours):
 
Tides and Currents Weather Stations Pressure Air Temp Water Temp Dewpoint Dewpoint Depression Visibility Wind Speed Wind Dir Waves Ship Positions

Flor Da Beira

Last reported at 2018-Aug-17 08:00 UTC. Time now 2018-Aug-19 22:42 UTC.
Position N 37°08' W 008°32'.

Length 23 m.

Type: Fishing. MMSI: 263408350.

Date/timePositionNaut miles runAvg speedWind from/ knotsBaromVisibWave heightAir tempDewpointWater temp
2018-Aug-17 08:00N 37°08' W 008°32'4 7.0
2018-Aug-17 07:30N 37°05' W 008°33'3 5.5
2018-Aug-17 07:00N 37°04' W 008°36'2 3.1
2018-Aug-17 06:30N 37°04' W 008°34'5 9.9
2018-Aug-17 05:58N 37°04' W 008°27'4 8.8
2018-Aug-17 05:30N 37°02' W 008°23'2 3.4
2018-Aug-17 05:00N 36°60' W 008°23'4 7.7
2018-Aug-17 04:30N 37°04' W 008°24'0 0.6
2018-Aug-17 04:00N 37°04' W 008°24'2 3.6
2018-Aug-17 03:30N 37°03' W 008°22'4 8.6
2018-Aug-17 03:00N 37°03' W 008°17'7 1.5
2018-Aug-16 22:48N 37°04' W 008°09'3 9.9
2018-Aug-16 22:28N 37°03' W 008°13'5 9.7
2018-Aug-16 22:00N 37°03' W 008°19'5 9.8
2018-Aug-16 21:28N 37°03' W 008°25'2 3.2
2018-Aug-16 20:58N 37°04' W 008°27'0 0.4
2018-Aug-16 20:30N 37°04' W 008°27'0 0.3
2018-Aug-16 20:00N 37°04' W 008°27'0 0.4
2018-Aug-16 19:30N 37°04' W 008°26'3 6.7
2018-Aug-16 19:00N 37°02' W 008°23'4 7.3
2018-Aug-16 18:28N 37°03' W 008°28'4 7.8
2018-Aug-16 17:59N 37°06' W 008°31'2 5.0
2018-Aug-16 17:30N 37°08' W 008°32'0 0.2
2018-Aug-16 17:01N 37°08' W 008°32'0 0.0
2018-Aug-16 16:31N 37°08' W 008°32'0 0.0
2018-Aug-16 16:01N 37°08' W 008°32'0 0.0
2018-Aug-16 15:31N 37°08' W 008°32'0 0.0
2018-Aug-16 15:01N 37°08' W 008°32'0 0.0
2018-Aug-16 14:31N 37°08' W 008°32'0 0.0
2018-Aug-16 14:01N 37°08' W 008°32'0 0.0
2018-Aug-16 13:30N 37°08' W 008°32'0 0.0
2018-Aug-16 13:01N 37°08' W 008°32'0 0.0
2018-Aug-16 12:31N 37°08' W 008°32'0 0.0
2018-Aug-16 12:01N 37°08' W 008°32'0 0.0
2018-Aug-16 11:31N 37°08' W 008°32'0 0.0
2018-Aug-16 11:01N 37°08' W 008°32'0 0.0
2018-Aug-16 10:31N 37°08' W 008°32'0 0.0
2018-Aug-16 10:00N 37°08' W 008°32'0 0.0
2018-Aug-16 09:31N 37°08' W 008°32'0 0.0
2018-Aug-16 09:01N 37°08' W 008°32'0 0.4
2018-Aug-16 08:30N 37°08' W 008°32'0 0.9
2018-Aug-16 08:01N 37°07' W 008°32'5 9.1
2018-Aug-16 07:31N 37°04' W 008°28'2 4.8
2018-Aug-16 07:01N 37°02' W 008°26'0 0.4
2018-Aug-16 06:30N 37°02' W 008°26'0 0.3
2018-Aug-16 06:01N 37°02' W 008°26'0 0.7
2018-Aug-16 05:30N 37°02' W 008°25'2 3.5
2018-Aug-16 05:01N 37°02' W 008°27'4 8.1
2018-Aug-16 04:30N 37°05' W 008°31'5 9.0
2018-Aug-16 03:59N 37°04' W 008°37'1 2.2
2018-Aug-16 03:31N 37°03' W 008°38'0 0.2
2018-Aug-16 03:00N 37°03' W 008°38'0 0.2
2018-Aug-16 02:30N 37°04' W 008°38'1 2.0
2018-Aug-16 02:00N 37°03' W 008°37'4 8.2
2018-Aug-16 01:30N 37°02' W 008°32'3 6.7
2018-Aug-16 01:00N 37°03' W 008°28'4 7.5
2018-Aug-16 00:29N 37°06' W 008°31'2 4.5
2018-Aug-15 23:58N 37°08' W 008°32'0 0.0
2018-Aug-14 09:29N 37°08' W 008°32'0 0.4
2018-Aug-14 09:00N 37°08' W 008°32'3 5.5
2018-Aug-14 08:31N 37°05' W 008°33'510.1
2018-Aug-14 08:00N 37°02' W 008°37'3 3.0
2018-Aug-14 06:57N 37°01' W 008°41'0 0.2
2018-Aug-14 06:29N 37°01' W 008°41'1 1.9
2018-Aug-14 05:57N 37°01' W 008°39'1 3.1
2018-Aug-14 05:29N 37°02' W 008°39'4 7.1
2018-Aug-14 04:58N 37°03' W 008°34'2 4.8
2018-Aug-14 04:30N 37°05' W 008°34'5 9.7
2018-Aug-14 03:59N 37°05' W 008°40'1 2.0
2018-Aug-14 03:23N 37°05' W 008°39'3 7.3
2018-Aug-14 02:56N 37°05' W 008°35'3 5.8
2018-Aug-14 02:26N 37°07' W 008°32'1 1.9
2018-Aug-14 01:42N 37°08' W 008°32'0 0.0
2018-Aug-14 01:25N 37°08' W 008°32'0 0.0
2018-Aug-14 00:56N 37°08' W 008°32'0 0.0
2018-Aug-14 00:28N 37°08' W 008°32'0 0.0
2018-Aug-14 00:00N 37°08' W 008°32'0 0.0
2018-Aug-13 23:19N 37°08' W 008°32'0 0.0
2018-Aug-13 22:57N 37°08' W 008°32'0 0.0
2018-Aug-13 22:29N 37°08' W 008°32'0 0.0
2018-Aug-13 20:22N 37°08' W 008°32'2 5.7
2018-Aug-13 20:00N 37°06' W 008°31'4 8.5
2018-Aug-13 19:30N 37°04' W 008°27'5 8.6
2018-Aug-13 18:58N 37°02' W 008°22'4 7.5
2018-Aug-13 18:30N 37°01' W 008°18'  
2018-Aug-07 08:19N 36°60' W 008°10'  
Track history (hours):
 
Tides and Currents Weather Stations Pressure Air Temp Water Temp Dewpoint Dewpoint Depression Visibility Wind Speed Wind Dir Waves Ship Positions

Flor Da Beira

Last reported at 2018-Aug-17 08:00 UTC. Time now 2018-Aug-19 22:42 UTC.
Position N 37°08' W 008°32'.

Length 23 m.

Type: Fishing. MMSI: 263408350.

Date/timePositionNaut miles runAvg speedWind from/ knotsBaromVisibWave heightAir tempDewpointWater temp
2018-Aug-17 08:00N 37°08' W 008°32'4 7.0
2018-Aug-17 07:30N 37°05' W 008°33'3 5.5
2018-Aug-17 07:00N 37°04' W 008°36'2 3.1
2018-Aug-17 06:30N 37°04' W 008°34'5 9.9
2018-Aug-17 05:58N 37°04' W 008°27'4 8.8
2018-Aug-17 05:30N 37°02' W 008°23'2 3.4
2018-Aug-17 05:00N 36°60' W 008°23'4 7.7
2018-Aug-17 04:30N 37°04' W 008°24'0 0.6
2018-Aug-17 04:00N 37°04' W 008°24'2 3.6
2018-Aug-17 03:30N 37°03' W 008°22'4 8.6
2018-Aug-17 03:00N 37°03' W 008°17'7 1.5
2018-Aug-16 22:48N 37°04' W 008°09'3 9.9
2018-Aug-16 22:28N 37°03' W 008°13'5 9.7
2018-Aug-16 22:00N 37°03' W 008°19'5 9.8
2018-Aug-16 21:28N 37°03' W 008°25'2 3.2
2018-Aug-16 20:58N 37°04' W 008°27'0 0.4
2018-Aug-16 20:30N 37°04' W 008°27'0 0.3
2018-Aug-16 20:00N 37°04' W 008°27'0 0.4
2018-Aug-16 19:30N 37°04' W 008°26'3 6.7
2018-Aug-16 19:00N 37°02' W 008°23'4 7.3
2018-Aug-16 18:28N 37°03' W 008°28'4 7.8
2018-Aug-16 17:59N 37°06' W 008°31'2 5.0
2018-Aug-16 17:30N 37°08' W 008°32'0 0.2
2018-Aug-16 17:01N 37°08' W 008°32'0 0.0
2018-Aug-16 16:31N 37°08' W 008°32'0 0.0
2018-Aug-16 16:01N 37°08' W 008°32'0 0.0
2018-Aug-16 15:31N 37°08' W 008°32'0 0.0
2018-Aug-16 15:01N 37°08' W 008°32'0 0.0
2018-Aug-16 14:31N 37°08' W 008°32'0 0.0
2018-Aug-16 14:01N 37°08' W 008°32'0 0.0
2018-Aug-16 13:30N 37°08' W 008°32'0 0.0
2018-Aug-16 13:01N 37°08' W 008°32'0 0.0
2018-Aug-16 12:31N 37°08' W 008°32'0 0.0
2018-Aug-16 12:01N 37°08' W 008°32'0 0.0
2018-Aug-16 11:31N 37°08' W 008°32'0 0.0
2018-Aug-16 11:01N 37°08' W 008°32'0 0.0
2018-Aug-16 10:31N 37°08' W 008°32'0 0.0
2018-Aug-16 10:00N 37°08' W 008°32'0 0.0
2018-Aug-16 09:31N 37°08' W 008°32'0 0.0
2018-Aug-16 09:01N 37°08' W 008°32'0 0.4
2018-Aug-16 08:30N 37°08' W 008°32'0 0.9
2018-Aug-16 08:01N 37°07' W 008°32'5 9.1
2018-Aug-16 07:31N 37°04' W 008°28'2 4.8
2018-Aug-16 07:01N 37°02' W 008°26'0 0.4
2018-Aug-16 06:30N 37°02' W 008°26'0 0.3
2018-Aug-16 06:01N 37°02' W 008°26'0 0.7
2018-Aug-16 05:30N 37°02' W 008°25'2 3.5
2018-Aug-16 05:01N 37°02' W 008°27'4 8.1
2018-Aug-16 04:30N 37°05' W 008°31'5 9.0
2018-Aug-16 03:59N 37°04' W 008°37'1 2.2
2018-Aug-16 03:31N 37°03' W 008°38'0 0.2
2018-Aug-16 03:00N 37°03' W 008°38'0 0.2
2018-Aug-16 02:30N 37°04' W 008°38'1 2.0
2018-Aug-16 02:00N 37°03' W 008°37'4 8.2
2018-Aug-16 01:30N 37°02' W 008°32'3 6.7
2018-Aug-16 01:00N 37°03' W 008°28'4 7.5
2018-Aug-16 00:29N 37°06' W 008°31'2 4.5
2018-Aug-15 23:58N 37°08' W 008°32'0 0.0
2018-Aug-14 09:29N 37°08' W 008°32'0 0.4
2018-Aug-14 09:00N 37°08' W 008°32'3 5.5
2018-Aug-14 08:31N 37°05' W 008°33'510.1
2018-Aug-14 08:00N 37°02' W 008°37'3 3.0
2018-Aug-14 06:57N 37°01' W 008°41'0 0.2
2018-Aug-14 06:29N 37°01' W 008°41'1 1.9
2018-Aug-14 05:57N 37°01' W 008°39'1 3.1
2018-Aug-14 05:29N 37°02' W 008°39'4 7.1
2018-Aug-14 04:58N 37°03' W 008°34'2 4.8
2018-Aug-14 04:30N 37°05' W 008°34'5 9.7
2018-Aug-14 03:59N 37°05' W 008°40'1 2.0
2018-Aug-14 03:23N 37°05' W 008°39'3 7.3
2018-Aug-14 02:56N 37°05' W 008°35'3 5.8
2018-Aug-14 02:26N 37°07' W 008°32'1 1.9
2018-Aug-14 01:42N 37°08' W 008°32'0 0.0
2018-Aug-14 01:25N 37°08' W 008°32'0 0.0
2018-Aug-14 00:56N 37°08' W 008°32'0 0.0
2018-Aug-14 00:28N 37°08' W 008°32'0 0.0
2018-Aug-14 00:00N 37°08' W 008°32'0 0.0
2018-Aug-13 23:19N 37°08' W 008°32'0 0.0
2018-Aug-13 22:57N 37°08' W 008°32'0 0.0
2018-Aug-13 22:29N 37°08' W 008°32'0 0.0
2018-Aug-13 20:22N 37°08' W 008°32'2 5.7
2018-Aug-13 20:00N 37°06' W 008°31'4 8.5
2018-Aug-13 19:30N 37°04' W 008°27'5 8.6
2018-Aug-13 18:58N 37°02' W 008°22'4 7.5
2018-Aug-13 18:30N 37°01' W 008°18'  
2018-Aug-07 08:19N 36°60' W 008°10'  

Dump ship's entire track history